• Join FlightAware (Why Join?)
  • Login
  • US Flag 
07:29AM EDT


 

Airport Tracker/Info


-or-


 

Live Flight TrackerFlight Track Log ✈ HAL107 ✈ 24-Apr-2013 ✈ PHKO / KOA - PHNL

Flight Track Log - Related Links

Times and Time Zones

All times are in EDT time to prevent confusion due to time zone crossing. See the HAL107 flight status page for this flight to view local times or setup timezone preferences in your user account.

Time Position Orientation Groundspeed Altitude Reporting Facility
EDT Latitude Longitude Course Direction KTS MPH feet Rate Location/Type
12:14PM 19.7833 -156.0333 303° West 170 196 2,800  Level Honolulu Center
12:15PM 19.8333 -156.0333 360° North 210 242 4,500 1,200 Climbing Honolulu Center
12:16PM 19.8319 -156.2319 317° Northwest  Level FlightAware Approximate
12:16PM 19.8667 -156.0833 305° West 260 299 5,300  Level Honolulu Center
12:17PM 19.8794 -156.2833 North  Level FlightAware Approximate
12:17PM 19.9167 -156.1500 309° West 270 311 7,700  Level Honolulu Center
12:18PM 19.9188 -156.3454 301° West  Level FlightAware Approximate
12:18PM 19.9667 -156.2167 309° West 290 334 9,800  Level Honolulu Center
12:19PM 19.9500 -156.4130 270° West  Level FlightAware Approximate
12:19PM 20.0167 -156.3000 303° West 320 368 11,300  Level Honolulu Center
12:20PM 20.0001 -156.4669 303° West  Level FlightAware Approximate
12:20PM 20.0833 -156.3667 317° Northwest 350 403 12,900  Level Honolulu Center
12:21PM 20.1500 -156.4500 310° West 360 414 14,800 2,100 Climbing Honolulu Center
12:22PM 20.2000 -156.5500 298° West 360 414 17,100 2,220 Climbing Honolulu Center
12:23PM 20.2667 -156.6333 310° West 360 414 19,300 1,440 Climbing Honolulu Center
12:24PM 20.3333 -156.7167 310° West 360 414 20,000 300 Climbing Honolulu Center
12:25PM 20.3833 -156.8000 303° West 360 414 20,000  Level Honolulu Center
12:26PM 20.4500 -156.8833 310° West 360 414 20,000  Level Honolulu Center
12:27PM 20.5167 -156.9667 311° West 360 414 20,000  Level Honolulu Center
12:28PM 20.5833 -157.0500 311° West 360 414 20,000  Level Honolulu Center
12:29PM 20.6333 -157.1167 309° West 360 414 20,000 -60 Level Honolulu Center
12:30PM 20.7000 -157.2167 305° West 360 414 19,900 -900 Descending Honolulu Center
12:31PM 20.7500 -157.2833 309° West 320 368 18,300 -1,740 Descending Honolulu Center
12:32PM 20.8000 -157.3667 303° West 310 357 16,400 -2,100 Descending Honolulu Center
12:33PM 20.8500 -157.4500 303° West 300 345 14,100 -2,220 Descending Honolulu Center
12:34PM 20.8833 -157.5333 293° West 290 334 12,100 -1,980 Descending Honolulu Center
12:35PM 20.9167 -157.6000 298° West 280 322 10,200 -1,740 Descending Honolulu Center
12:36PM 20.9500 -157.6833 293° West 270 311 8,700 -900 Descending Honolulu Center
12:37PM 20.9833 -157.7500 298° West 220 253 8,400 -900 Descending Honolulu Center
12:38PM 21.0000 -157.8000 290° West 200 230 7,000 -1,440 Descending Honolulu Center
12:39PM 21.0333 -157.8500 306° West 200 230 5,600 -1,200 Descending Honolulu Center
12:40PM 21.0500 -157.9000 290° West 200 230 4,700 -900 Descending Honolulu Center